sensor_id;sensor_type;location;lat;lon;timestamp;P1;durP1;ratioP1;P2;durP2;ratioP2
46835;SDS011;32573;51.290;6.926;2023-04-23T00:00:24;9.07;;;5.60;;
46835;SDS011;32573;51.290;6.926;2023-04-23T00:02:53;11.23;;;6.18;;
46835;SDS011;32573;51.290;6.926;2023-04-23T00:05:24;9.25;;;5.93;;
46835;SDS011;32573;51.290;6.926;2023-04-23T00:07:57;9.25;;;5.32;;
46835;SDS011;32573;51.290;6.926;2023-04-23T00:10:29;9.20;;;5.82;;
46835;SDS011;32573;51.290;6.926;2023-04-23T00:12:57;10.07;;;5.88;;
46835;SDS011;32573;51.290;6.926;2023-04-23T00:15:27;8.80;;;5.60;;
46835;SDS011;32573;51.290;6.926;2023-04-23T00:17:56;9.35;;;5.95;;
46835;SDS011;32573;51.290;6.926;2023-04-23T00:20:24;9.65;;;5.40;;
46835;SDS011;32573;51.290;6.926;2023-04-23T00:22:54;9.65;;;5.45;;
46835;SDS011;32573;51.290;6.926;2023-04-23T00:25:23;8.93;;;5.32;;
46835;SDS011;32573;51.290;6.926;2023-04-23T00:27:51;9.32;;;5.50;;
46835;SDS011;32573;51.290;6.926;2023-04-23T00:30:20;9.57;;;5.70;;
46835;SDS011;32573;51.290;6.926;2023-04-23T00:32:48;9.65;;;5.45;;
46835;SDS011;32573;51.290;6.926;2023-04-23T00:35:17;8.70;;;5.32;;
46835;SDS011;32573;51.290;6.926;2023-04-23T00:37:46;9.30;;;5.22;;
46835;SDS011;32573;51.290;6.926;2023-04-23T00:40:16;8.77;;;5.28;;
46835;SDS011;32573;51.290;6.926;2023-04-23T00:42:46;8.35;;;5.05;;
46835;SDS011;32573;51.290;6.926;2023-04-23T00:45:18;9.15;;;5.32;;
46835;SDS011;32573;51.290;6.926;2023-04-23T00:47:47;9.43;;;5.50;;
46835;SDS011;32573;51.290;6.926;2023-04-23T00:50:16;8.02;;;4.68;;
46835;SDS011;32573;51.290;6.926;2023-04-23T00:52:46;8.75;;;5.60;;
46835;SDS011;32573;51.290;6.926;2023-04-23T00:55:16;8.60;;;5.15;;
46835;SDS011;32573;51.290;6.926;2023-04-23T00:57:46;9.00;;;5.32;;
46835;SDS011;32573;51.290;6.926;2023-04-23T01:00:16;9.10;;;5.25;;
46835;SDS011;32573;51.290;6.926;2023-04-23T01:02:47;7.97;;;4.85;;
46835;SDS011;32573;51.290;6.926;2023-04-23T01:05:19;9.45;;;5.00;;
46835;SDS011;32573;51.290;6.926;2023-04-23T01:07:50;10.02;;;5.65;;
46835;SDS011;32573;51.290;6.926;2023-04-23T01:10:20;7.68;;;4.65;;
46835;SDS011;32573;51.290;6.926;2023-04-23T01:12:49;9.15;;;5.35;;
46835;SDS011;32573;51.290;6.926;2023-04-23T01:15:17;8.15;;;5.00;;
46835;SDS011;32573;51.290;6.926;2023-04-23T01:17:46;8.90;;;5.28;;
46835;SDS011;32573;51.290;6.926;2023-04-23T01:20:14;8.60;;;5.10;;
46835;SDS011;32573;51.290;6.926;2023-04-23T01:22:44;8.27;;;5.05;;
46835;SDS011;32573;51.290;6.926;2023-04-23T01:25:13;9.15;;;5.03;;
46835;SDS011;32573;51.290;6.926;2023-04-23T01:27:42;8.25;;;5.13;;
46835;SDS011;32573;51.290;6.926;2023-04-23T01:30:11;9.02;;;5.50;;
46835;SDS011;32573;51.290;6.926;2023-04-23T01:32:40;8.20;;;4.70;;
46835;SDS011;32573;51.290;6.926;2023-04-23T01:35:10;7.72;;;4.63;;
46835;SDS011;32573;51.290;6.926;2023-04-23T01:37:39;8.98;;;4.93;;
46835;SDS011;32573;51.290;6.926;2023-04-23T01:40:10;7.72;;;4.65;;
46835;SDS011;32573;51.290;6.926;2023-04-23T01:42:39;9.60;;;5.05;;
46835;SDS011;32573;51.290;6.926;2023-04-23T01:45:09;7.47;;;4.38;;
46835;SDS011;32573;51.290;6.926;2023-04-23T01:47:38;7.43;;;4.55;;
46835;SDS011;32573;51.290;6.926;2023-04-23T01:50:08;7.78;;;4.57;;
46835;SDS011;32573;51.290;6.926;2023-04-23T01:52:37;7.57;;;4.53;;
46835;SDS011;32573;51.290;6.926;2023-04-23T01:55:06;8.23;;;4.72;;
46835;SDS011;32573;51.290;6.926;2023-04-23T01:57:37;7.80;;;4.80;;
46835;SDS011;32573;51.290;6.926;2023-04-23T02:00:08;8.40;;;5.15;;
46835;SDS011;32573;51.290;6.926;2023-04-23T02:02:39;8.27;;;4.63;;
46835;SDS011;32573;51.290;6.926;2023-04-23T02:05:10;7.68;;;4.88;;
46835;SDS011;32573;51.290;6.926;2023-04-23T02:07:40;8.07;;;4.88;;
46835;SDS011;32573;51.290;6.926;2023-04-23T02:10:10;7.97;;;4.80;;
46835;SDS011;32573;51.290;6.926;2023-04-23T02:12:40;8.13;;;5.00;;
46835;SDS011;32573;51.290;6.926;2023-04-23T02:15:09;8.90;;;5.43;;
46835;SDS011;32573;51.290;6.926;2023-04-23T02:17:38;8.32;;;5.07;;
46835;SDS011;32573;51.290;6.926;2023-04-23T02:20:08;7.55;;;4.32;;
46835;SDS011;32573;51.290;6.926;2023-04-23T02:22:38;8.68;;;5.05;;
46835;SDS011;32573;51.290;6.926;2023-04-23T02:25:08;7.45;;;4.30;;
46835;SDS011;32573;51.290;6.926;2023-04-23T02:27:36;8.50;;;4.95;;
46835;SDS011;32573;51.290;6.926;2023-04-23T02:30:07;7.95;;;4.47;;
46835;SDS011;32573;51.290;6.926;2023-04-23T02:32:37;8.18;;;4.90;;
46835;SDS011;32573;51.290;6.926;2023-04-23T02:35:06;8.55;;;5.35;;
46835;SDS011;32573;51.290;6.926;2023-04-23T02:37:36;9.10;;;5.40;;
46835;SDS011;32573;51.290;6.926;2023-04-23T02:40:06;8.52;;;5.22;;
46835;SDS011;32573;51.290;6.926;2023-04-23T02:42:35;9.23;;;5.28;;
46835;SDS011;32573;51.290;6.926;2023-04-23T02:45:04;8.15;;;4.90;;
46835;SDS011;32573;51.290;6.926;2023-04-23T02:47:35;8.48;;;4.55;;
46835;SDS011;32573;51.290;6.926;2023-04-23T02:50:05;8.38;;;4.85;;
46835;SDS011;32573;51.290;6.926;2023-04-23T02:52:34;8.25;;;4.65;;
46835;SDS011;32573;51.290;6.926;2023-04-23T02:55:03;7.85;;;4.60;;
46835;SDS011;32573;51.290;6.926;2023-04-23T02:57:33;9.35;;;5.28;;
46835;SDS011;32573;51.290;6.926;2023-04-23T03:00:01;7.85;;;4.40;;
46835;SDS011;32573;51.290;6.926;2023-04-23T03:02:39;8.98;;;5.00;;
46835;SDS011;32573;51.290;6.926;2023-04-23T03:05:08;8.95;;;5.03;;
46835;SDS011;32573;51.290;6.926;2023-04-23T03:07:37;8.93;;;5.20;;
46835;SDS011;32573;51.290;6.926;2023-04-23T03:10:06;9.02;;;4.95;;
46835;SDS011;32573;51.290;6.926;2023-04-23T03:12:35;9.32;;;5.30;;
46835;SDS011;32573;51.290;6.926;2023-04-23T03:15:04;10.15;;;5.63;;
46835;SDS011;32573;51.290;6.926;2023-04-23T03:17:35;9.13;;;5.63;;
46835;SDS011;32573;51.290;6.926;2023-04-23T03:20:08;8.63;;;4.95;;
46835;SDS011;32573;51.290;6.926;2023-04-23T03:22:38;8.98;;;5.28;;
46835;SDS011;32573;51.290;6.926;2023-04-23T03:25:08;9.95;;;5.22;;
46835;SDS011;32573;51.290;6.926;2023-04-23T03:27:37;10.25;;;5.68;;
46835;SDS011;32573;51.290;6.926;2023-04-23T03:30:07;9.88;;;5.82;;
46835;SDS011;32573;51.290;6.926;2023-04-23T03:32:36;10.27;;;5.68;;
46835;SDS011;32573;51.290;6.926;2023-04-23T03:35:07;10.30;;;5.80;;
46835;SDS011;32573;51.290;6.926;2023-04-23T03:37:39;9.75;;;5.95;;
46835;SDS011;32573;51.290;6.926;2023-04-23T03:40:08;9.57;;;5.70;;
46835;SDS011;32573;51.290;6.926;2023-04-23T03:42:39;11.30;;;6.40;;
46835;SDS011;32573;51.290;6.926;2023-04-23T03:45:10;10.02;;;6.40;;
46835;SDS011;32573;51.290;6.926;2023-04-23T03:47:40;10.98;;;6.70;;
46835;SDS011;32573;51.290;6.926;2023-04-23T03:50:11;12.68;;;7.28;;
46835;SDS011;32573;51.290;6.926;2023-04-23T03:52:42;12.38;;;7.47;;
46835;SDS011;32573;51.290;6.926;2023-04-23T03:55:18;10.02;;;6.32;;
46835;SDS011;32573;51.290;6.926;2023-04-23T03:57:47;11.55;;;6.63;;
46835;SDS011;32573;51.290;6.926;2023-04-23T04:00:22;10.68;;;6.30;;
46835;SDS011;32573;51.290;6.926;2023-04-23T04:02:51;11.07;;;6.55;;
46835;SDS011;32573;51.290;6.926;2023-04-23T04:05:23;11.77;;;6.78;;
46835;SDS011;32573;51.290;6.926;2023-04-23T04:07:53;12.55;;;7.32;;
46835;SDS011;32573;51.290;6.926;2023-04-23T04:10:23;10.68;;;6.72;;
46835;SDS011;32573;51.290;6.926;2023-04-23T04:12:52;10.45;;;6.20;;
46835;SDS011;32573;51.290;6.926;2023-04-23T04:15:21;12.43;;;7.35;;
46835;SDS011;32573;51.290;6.926;2023-04-23T04:17:50;13.15;;;7.05;;
46835;SDS011;32573;51.290;6.926;2023-04-23T04:20:19;12.48;;;6.90;;
46835;SDS011;32573;51.290;6.926;2023-04-23T04:22:49;11.40;;;6.88;;
46835;SDS011;32573;51.290;6.926;2023-04-23T04:25:18;14.85;;;8.23;;
46835;SDS011;32573;51.290;6.926;2023-04-23T04:27:48;12.10;;;6.82;;
46835;SDS011;32573;51.290;6.926;2023-04-23T04:30:17;15.52;;;7.75;;
46835;SDS011;32573;51.290;6.926;2023-04-23T04:32:45;11.98;;;7.32;;
46835;SDS011;32573;51.290;6.926;2023-04-23T04:35:16;12.05;;;6.70;;
46835;SDS011;32573;51.290;6.926;2023-04-23T04:37:45;13.52;;;7.90;;
46835;SDS011;32573;51.290;6.926;2023-04-23T04:40:15;12.68;;;7.40;;
46835;SDS011;32573;51.290;6.926;2023-04-23T04:42:44;11.25;;;6.82;;
46835;SDS011;32573;51.290;6.926;2023-04-23T04:45:13;11.02;;;7.00;;
46835;SDS011;32573;51.290;6.926;2023-04-23T04:47:42;12.45;;;6.93;;
46835;SDS011;32573;51.290;6.926;2023-04-23T04:50:11;11.23;;;6.78;;
46835;SDS011;32573;51.290;6.926;2023-04-23T04:52:40;12.30;;;6.90;;
46835;SDS011;32573;51.290;6.926;2023-04-23T04:55:08;11.27;;;6.75;;
46835;SDS011;32573;51.290;6.926;2023-04-23T04:57:38;11.25;;;6.88;;
46835;SDS011;32573;51.290;6.926;2023-04-23T05:00:20;13.77;;;7.63;;
46835;SDS011;32573;51.290;6.926;2023-04-23T05:02:50;14.02;;;8.25;;
46835;SDS011;32573;51.290;6.926;2023-04-23T05:05:20;12.10;;;7.55;;
46835;SDS011;32573;51.290;6.926;2023-04-23T05:07:49;11.15;;;6.90;;
46835;SDS011;32573;51.290;6.926;2023-04-23T05:10:20;11.80;;;7.20;;
46835;SDS011;32573;51.290;6.926;2023-04-23T05:12:50;10.82;;;6.68;;
46835;SDS011;32573;51.290;6.926;2023-04-23T05:15:18;13.90;;;8.95;;
46835;SDS011;32573;51.290;6.926;2023-04-23T05:17:47;11.93;;;7.15;;
46835;SDS011;32573;51.290;6.926;2023-04-23T05:20:16;12.32;;;7.38;;
46835;SDS011;32573;51.290;6.926;2023-04-23T05:22:45;10.63;;;6.57;;
46835;SDS011;32573;51.290;6.926;2023-04-23T05:25:13;11.85;;;7.10;;
46835;SDS011;32573;51.290;6.926;2023-04-23T05:27:42;13.25;;;8.30;;
46835;SDS011;32573;51.290;6.926;2023-04-23T05:30:12;11.73;;;7.07;;
46835;SDS011;32573;51.290;6.926;2023-04-23T05:32:41;11.27;;;6.93;;
46835;SDS011;32573;51.290;6.926;2023-04-23T05:35:10;12.57;;;7.38;;
46835;SDS011;32573;51.290;6.926;2023-04-23T05:37:39;11.55;;;6.85;;
46835;SDS011;32573;51.290;6.926;2023-04-23T05:40:08;12.50;;;7.72;;
46835;SDS011;32573;51.290;6.926;2023-04-23T05:42:37;10.93;;;6.40;;
46835;SDS011;32573;51.290;6.926;2023-04-23T05:45:06;12.02;;;7.18;;
46835;SDS011;32573;51.290;6.926;2023-04-23T05:47:37;11.85;;;6.97;;
46835;SDS011;32573;51.290;6.926;2023-04-23T05:50:06;10.20;;;6.80;;
46835;SDS011;32573;51.290;6.926;2023-04-23T05:52:37;12.25;;;6.80;;
46835;SDS011;32573;51.290;6.926;2023-04-23T05:55:05;9.95;;;6.15;;
46835;SDS011;32573;51.290;6.926;2023-04-23T05:57:36;8.50;;;5.40;;
46835;SDS011;32573;51.290;6.926;2023-04-23T06:00:06;9.50;;;6.00;;
46835;SDS011;32573;51.290;6.926;2023-04-23T06:02:42;9.98;;;6.35;;
46835;SDS011;32573;51.290;6.926;2023-04-23T06:05:11;9.18;;;5.93;;
46835;SDS011;32573;51.290;6.926;2023-04-23T06:07:40;10.35;;;6.47;;
46835;SDS011;32573;51.290;6.926;2023-04-23T06:10:09;9.30;;;5.90;;
46835;SDS011;32573;51.290;6.926;2023-04-23T06:12:39;9.98;;;5.97;;
46835;SDS011;32573;51.290;6.926;2023-04-23T06:15:08;10.52;;;6.47;;
46835;SDS011;32573;51.290;6.926;2023-04-23T06:17:37;9.88;;;5.97;;
46835;SDS011;32573;51.290;6.926;2023-04-23T06:20:08;10.88;;;6.60;;
46835;SDS011;32573;51.290;6.926;2023-04-23T06:22:38;10.73;;;6.53;;
46835;SDS011;32573;51.290;6.926;2023-04-23T06:25:06;10.55;;;6.47;;
46835;SDS011;32573;51.290;6.926;2023-04-23T06:27:36;10.88;;;6.93;;
46835;SDS011;32573;51.290;6.926;2023-04-23T06:30:12;11.52;;;7.00;;
46835;SDS011;32573;51.290;6.926;2023-04-23T06:32:41;10.15;;;6.00;;
46835;SDS011;32573;51.290;6.926;2023-04-23T06:35:12;13.27;;;7.85;;
46835;SDS011;32573;51.290;6.926;2023-04-23T06:37:41;11.30;;;7.03;;
46835;SDS011;32573;51.290;6.926;2023-04-23T06:40:09;9.98;;;6.70;;
46835;SDS011;32573;51.290;6.926;2023-04-23T06:42:38;11.05;;;6.95;;
46835;SDS011;32573;51.290;6.926;2023-04-23T06:45:27;11.65;;;6.90;;
46835;SDS011;32573;51.290;6.926;2023-04-23T06:47:57;9.15;;;6.30;;
46835;SDS011;32573;51.290;6.926;2023-04-23T06:50:28;10.77;;;6.63;;
46835;SDS011;32573;51.290;6.926;2023-04-23T06:52:57;10.98;;;7.10;;
46835;SDS011;32573;51.290;6.926;2023-04-23T06:55:25;10.35;;;6.45;;
46835;SDS011;32573;51.290;6.926;2023-04-23T06:57:55;11.27;;;6.60;;
46835;SDS011;32573;51.290;6.926;2023-04-23T07:00:23;11.55;;;7.60;;
46835;SDS011;32573;51.290;6.926;2023-04-23T07:02:52;10.88;;;7.35;;
46835;SDS011;32573;51.290;6.926;2023-04-23T07:05:21;11.25;;;6.20;;
46835;SDS011;32573;51.290;6.926;2023-04-23T07:07:51;12.25;;;7.50;;
46835;SDS011;32573;51.290;6.926;2023-04-23T07:10:21;10.88;;;6.78;;
46835;SDS011;32573;51.290;6.926;2023-04-23T07:12:50;10.30;;;6.30;;
46835;SDS011;32573;51.290;6.926;2023-04-23T07:15:20;10.40;;;7.22;;
46835;SDS011;32573;51.290;6.926;2023-04-23T07:17:53;9.45;;;6.35;;
46835;SDS011;32573;51.290;6.926;2023-04-23T07:20:23;11.95;;;7.25;;
46835;SDS011;32573;51.290;6.926;2023-04-23T07:22:54;10.15;;;6.50;;
46835;SDS011;32573;51.290;6.926;2023-04-23T07:25:28;10.65;;;6.60;;
46835;SDS011;32573;51.290;6.926;2023-04-23T07:27:58;8.75;;;6.07;;
46835;SDS011;32573;51.290;6.926;2023-04-23T07:30:29;11.15;;;6.78;;
46835;SDS011;32573;51.290;6.926;2023-04-23T07:32:58;9.52;;;6.70;;
46835;SDS011;32573;51.290;6.926;2023-04-23T07:35:28;11.25;;;7.25;;
46835;SDS011;32573;51.290;6.926;2023-04-23T07:38:00;9.55;;;6.03;;
46835;SDS011;32573;51.290;6.926;2023-04-23T07:40:30;10.20;;;6.50;;
46835;SDS011;32573;51.290;6.926;2023-04-23T07:42:59;9.27;;;6.18;;
46835;SDS011;32573;51.290;6.926;2023-04-23T07:45:29;9.95;;;6.50;;
46835;SDS011;32573;51.290;6.926;2023-04-23T07:47:59;9.50;;;5.90;;
46835;SDS011;32573;51.290;6.926;2023-04-23T07:50:28;11.85;;;6.47;;
46835;SDS011;32573;51.290;6.926;2023-04-23T07:52:57;8.63;;;5.75;;
46835;SDS011;32573;51.290;6.926;2023-04-23T07:55:28;8.95;;;5.60;;
46835;SDS011;32573;51.290;6.926;2023-04-23T07:57:57;9.68;;;5.78;;
46835;SDS011;32573;51.290;6.926;2023-04-23T08:00:29;9.70;;;5.85;;
46835;SDS011;32573;51.290;6.926;2023-04-23T08:02:58;11.00;;;7.03;;
46835;SDS011;32573;51.290;6.926;2023-04-23T08:05:27;11.68;;;6.63;;
46835;SDS011;32573;51.290;6.926;2023-04-23T08:07:56;9.52;;;5.65;;
46835;SDS011;32573;51.290;6.926;2023-04-23T08:10:25;8.88;;;5.40;;
46835;SDS011;32573;51.290;6.926;2023-04-23T08:12:55;8.77;;;5.70;;
46835;SDS011;32573;51.290;6.926;2023-04-23T08:15:23;10.35;;;6.70;;
46835;SDS011;32573;51.290;6.926;2023-04-23T08:17:52;9.57;;;6.35;;
46835;SDS011;32573;51.290;6.926;2023-04-23T08:20:21;10.43;;;5.90;;
46835;SDS011;32573;51.290;6.926;2023-04-23T08:22:50;10.40;;;5.47;;
46835;SDS011;32573;51.290;6.926;2023-04-23T08:25:20;8.82;;;5.70;;
46835;SDS011;32573;51.290;6.926;2023-04-23T08:27:48;8.13;;;5.05;;
46835;SDS011;32573;51.290;6.926;2023-04-23T08:30:18;10.30;;;6.30;;
46835;SDS011;32573;51.290;6.926;2023-04-23T08:32:48;10.43;;;6.55;;
46835;SDS011;32573;51.290;6.926;2023-04-23T08:35:20;8.45;;;5.63;;
46835;SDS011;32573;51.290;6.926;2023-04-23T08:37:50;6.82;;;4.65;;
46835;SDS011;32573;51.290;6.926;2023-04-23T08:40:20;7.78;;;4.97;;
46835;SDS011;32573;51.290;6.926;2023-04-23T08:42:49;8.45;;;4.82;;
46835;SDS011;32573;51.290;6.926;2023-04-23T08:45:25;7.18;;;4.63;;
46835;SDS011;32573;51.290;6.926;2023-04-23T08:47:56;8.73;;;5.15;;
46835;SDS011;32573;51.290;6.926;2023-04-23T08:50:29;6.70;;;4.43;;
46835;SDS011;32573;51.290;6.926;2023-04-23T08:52:58;6.63;;;4.35;;
46835;SDS011;32573;51.290;6.926;2023-04-23T08:55:29;6.05;;;3.88;;
46835;SDS011;32573;51.290;6.926;2023-04-23T08:57:58;7.07;;;4.00;;
46835;SDS011;32573;51.290;6.926;2023-04-23T09:00:30;5.85;;;3.65;;
46835;SDS011;32573;51.290;6.926;2023-04-23T09:03:00;8.75;;;4.00;;
46835;SDS011;32573;51.290;6.926;2023-04-23T09:05:29;5.68;;;3.38;;
46835;SDS011;32573;51.290;6.926;2023-04-23T09:07:58;6.25;;;4.03;;
46835;SDS011;32573;51.290;6.926;2023-04-23T09:10:27;7.25;;;4.03;;
46835;SDS011;32573;51.290;6.926;2023-04-23T09:12:56;6.43;;;4.03;;
46835;SDS011;32573;51.290;6.926;2023-04-23T09:15:24;6.18;;;3.60;;
46835;SDS011;32573;51.290;6.926;2023-04-23T09:17:55;6.85;;;3.50;;
46835;SDS011;32573;51.290;6.926;2023-04-23T09:20:25;6.53;;;3.28;;
46835;SDS011;32573;51.290;6.926;2023-04-23T09:22:53;5.95;;;3.33;;
46835;SDS011;32573;51.290;6.926;2023-04-23T09:25:24;5.68;;;3.05;;
46835;SDS011;32573;51.290;6.926;2023-04-23T09:27:52;4.57;;;2.50;;
46835;SDS011;32573;51.290;6.926;2023-04-23T09:30:21;5.10;;;2.80;;
46835;SDS011;32573;51.290;6.926;2023-04-23T09:32:51;5.72;;;2.85;;
46835;SDS011;32573;51.290;6.926;2023-04-23T09:35:21;5.40;;;2.88;;
46835;SDS011;32573;51.290;6.926;2023-04-23T09:37:50;4.90;;;2.80;;
46835;SDS011;32573;51.290;6.926;2023-04-23T09:40:21;5.00;;;2.63;;
46835;SDS011;32573;51.290;6.926;2023-04-23T09:42:51;5.03;;;3.20;;
46835;SDS011;32573;51.290;6.926;2023-04-23T09:45:21;6.53;;;3.28;;
46835;SDS011;32573;51.290;6.926;2023-04-23T09:47:52;7.38;;;2.90;;
46835;SDS011;32573;51.290;6.926;2023-04-23T09:50:31;4.57;;;2.58;;
46835;SDS011;32573;51.290;6.926;2023-04-23T09:53:02;4.35;;;2.38;;
46835;SDS011;32573;51.290;6.926;2023-04-23T09:55:32;5.57;;;2.47;;
46835;SDS011;32573;51.290;6.926;2023-04-23T09:58:05;5.10;;;2.20;;
46835;SDS011;32573;51.290;6.926;2023-04-23T10:00:41;5.18;;;2.38;;
46835;SDS011;32573;51.290;6.926;2023-04-23T10:03:10;3.60;;;2.30;;
46835;SDS011;32573;51.290;6.926;2023-04-23T10:05:40;5.68;;;2.45;;
46835;SDS011;32573;51.290;6.926;2023-04-23T10:08:12;4.07;;;2.10;;
46835;SDS011;32573;51.290;6.926;2023-04-23T10:10:43;4.88;;;2.30;;
46835;SDS011;32573;51.290;6.926;2023-04-23T10:13:32;3.80;;;2.22;;
46835;SDS011;32573;51.290;6.926;2023-04-23T10:16:02;3.42;;;1.98;;
46835;SDS011;32573;51.290;6.926;2023-04-23T10:18:49;3.50;;;1.80;;
46835;SDS011;32573;51.290;6.926;2023-04-23T10:21:21;3.75;;;1.92;;
46835;SDS011;32573;51.290;6.926;2023-04-23T10:24:08;4.30;;;1.67;;
46835;SDS011;32573;51.290;6.926;2023-04-23T10:26:38;3.50;;;1.70;;
46835;SDS011;32573;51.290;6.926;2023-04-23T10:29:12;3.75;;;1.83;;
46835;SDS011;32573;51.290;6.926;2023-04-23T10:31:42;3.70;;;1.90;;
46835;SDS011;32573;51.290;6.926;2023-04-23T10:34:13;3.50;;;1.70;;
46835;SDS011;32573;51.290;6.926;2023-04-23T10:36:44;3.50;;;1.60;;
46835;SDS011;32573;51.290;6.926;2023-04-23T10:39:12;3.53;;;2.05;;
46835;SDS011;32573;51.290;6.926;2023-04-23T10:41:55;3.30;;;1.70;;
46835;SDS011;32573;51.290;6.926;2023-04-23T10:44:30;4.57;;;1.70;;
46835;SDS011;32573;51.290;6.926;2023-04-23T10:47:20;3.38;;;1.65;;
46835;SDS011;32573;51.290;6.926;2023-04-23T10:49:49;3.88;;;1.65;;
46835;SDS011;32573;51.290;6.926;2023-04-23T10:52:20;3.38;;;1.70;;
46835;SDS011;32573;51.290;6.926;2023-04-23T10:54:55;3.45;;;1.70;;
46835;SDS011;32573;51.290;6.926;2023-04-23T10:57:26;3.85;;;1.80;;
46835;SDS011;32573;51.290;6.926;2023-04-23T10:59:54;3.58;;;1.60;;
46835;SDS011;32573;51.290;6.926;2023-04-23T11:02:25;3.47;;;1.33;;
46835;SDS011;32573;51.290;6.926;2023-04-23T11:05:09;3.55;;;1.60;;
46835;SDS011;32573;51.290;6.926;2023-04-23T11:07:39;3.83;;;1.70;;
46835;SDS011;32573;51.290;6.926;2023-04-23T11:10:11;3.25;;;1.40;;
46835;SDS011;32573;51.290;6.926;2023-04-23T11:12:42;4.05;;;1.40;;
46835;SDS011;32573;51.290;6.926;2023-04-23T11:15:11;3.88;;;1.30;;
46835;SDS011;32573;51.290;6.926;2023-04-23T11:17:59;3.92;;;1.30;;
46835;SDS011;32573;51.290;6.926;2023-04-23T11:20:29;3.70;;;1.40;;
46835;SDS011;32573;51.290;6.926;2023-04-23T11:22:59;3.70;;;1.88;;
46835;SDS011;32573;51.290;6.926;2023-04-23T11:25:28;4.40;;;1.73;;
46835;SDS011;32573;51.290;6.926;2023-04-23T11:27:57;5.35;;;1.90;;
46835;SDS011;32573;51.290;6.926;2023-04-23T11:30:27;5.82;;;1.63;;
46835;SDS011;32573;51.290;6.926;2023-04-23T11:32:58;4.13;;;1.75;;
46835;SDS011;32573;51.290;6.926;2023-04-23T11:35:28;3.67;;;1.60;;
46835;SDS011;32573;51.290;6.926;2023-04-23T11:38:08;4.93;;;1.67;;
46835;SDS011;32573;51.290;6.926;2023-04-23T11:40:37;4.82;;;1.70;;
46835;SDS011;32573;51.290;6.926;2023-04-23T11:43:09;4.13;;;1.58;;
46835;SDS011;32573;51.290;6.926;2023-04-23T11:45:38;3.20;;;1.30;;
46835;SDS011;32573;51.290;6.926;2023-04-23T11:48:07;3.53;;;1.20;;
46835;SDS011;32573;51.290;6.926;2023-04-23T11:50:36;2.25;;;1.10;;
46835;SDS011;32573;51.290;6.926;2023-04-23T11:53:06;3.35;;;1.20;;
46835;SDS011;32573;51.290;6.926;2023-04-23T11:55:40;2.80;;;1.10;;
46835;SDS011;32573;51.290;6.926;2023-04-23T11:58:10;4.03;;;1.55;;
46835;SDS011;32573;51.290;6.926;2023-04-23T12:00:39;3.05;;;1.30;;
46835;SDS011;32573;51.290;6.926;2023-04-23T12:03:08;3.38;;;1.35;;
46835;SDS011;32573;51.290;6.926;2023-04-23T12:05:40;2.80;;;1.23;;
46835;SDS011;32573;51.290;6.926;2023-04-23T12:08:14;3.88;;;1.40;;
46835;SDS011;32573;51.290;6.926;2023-04-23T12:10:44;4.68;;;1.40;;
46835;SDS011;32573;51.290;6.926;2023-04-23T12:13:15;3.53;;;1.13;;
46835;SDS011;32573;51.290;6.926;2023-04-23T12:15:47;3.38;;;1.30;;
46835;SDS011;32573;51.290;6.926;2023-04-23T12:18:17;3.03;;;1.35;;
46835;SDS011;32573;51.290;6.926;2023-04-23T12:20:46;4.25;;;1.40;;
46835;SDS011;32573;51.290;6.926;2023-04-23T12:23:17;5.15;;;1.33;;
46835;SDS011;32573;51.290;6.926;2023-04-23T12:25:46;2.70;;;1.13;;
46835;SDS011;32573;51.290;6.926;2023-04-23T12:28:15;3.83;;;1.17;;
46835;SDS011;32573;51.290;6.926;2023-04-23T12:30:49;2.65;;;1.08;;
46835;SDS011;32573;51.290;6.926;2023-04-23T12:33:18;3.50;;;1.40;;
46835;SDS011;32573;51.290;6.926;2023-04-23T12:35:49;3.80;;;1.23;;
46835;SDS011;32573;51.290;6.926;2023-04-23T12:38:25;2.83;;;1.00;;
46835;SDS011;32573;51.290;6.926;2023-04-23T12:41:00;2.78;;;1.00;;
46835;SDS011;32573;51.290;6.926;2023-04-23T12:43:32;3.97;;;0.98;;
46835;SDS011;32573;51.290;6.926;2023-04-23T12:46:01;2.45;;;1.00;;
46835;SDS011;32573;51.290;6.926;2023-04-23T12:48:30;3.17;;;1.20;;
46835;SDS011;32573;51.290;6.926;2023-04-23T12:50:59;3.35;;;1.10;;
46835;SDS011;32573;51.290;6.926;2023-04-23T12:53:31;4.80;;;1.00;;
46835;SDS011;32573;51.290;6.926;2023-04-23T12:56:00;3.22;;;1.00;;
46835;SDS011;32573;51.290;6.926;2023-04-23T12:58:28;3.28;;;1.13;;
46835;SDS011;32573;51.290;6.926;2023-04-23T13:00:57;3.50;;;1.00;;
46835;SDS011;32573;51.290;6.926;2023-04-23T13:03:26;2.22;;;1.00;;
46835;SDS011;32573;51.290;6.926;2023-04-23T13:05:55;3.33;;;1.23;;
46835;SDS011;32573;51.290;6.926;2023-04-23T13:08:24;2.97;;;1.00;;
46835;SDS011;32573;51.290;6.926;2023-04-23T13:10:55;4.63;;;1.10;;
46835;SDS011;32573;51.290;6.926;2023-04-23T13:13:42;2.47;;;1.20;;
46835;SDS011;32573;51.290;6.926;2023-04-23T13:16:10;4.07;;;1.20;;
46835;SDS011;32573;51.290;6.926;2023-04-23T13:18:40;3.00;;;1.10;;
46835;SDS011;32573;51.290;6.926;2023-04-23T13:21:09;4.53;;;1.30;;
46835;SDS011;32573;51.290;6.926;2023-04-23T13:23:38;2.55;;;1.10;;
46835;SDS011;32573;51.290;6.926;2023-04-23T13:26:08;2.85;;;1.17;;
46835;SDS011;32573;51.290;6.926;2023-04-23T13:28:37;2.92;;;1.10;;
46835;SDS011;32573;51.290;6.926;2023-04-23T13:31:05;3.08;;;1.00;;
46835;SDS011;32573;51.290;6.926;2023-04-23T13:33:34;2.88;;;1.00;;
46835;SDS011;32573;51.290;6.926;2023-04-23T13:36:03;3.28;;;1.30;;
46835;SDS011;32573;51.290;6.926;2023-04-23T13:38:33;4.28;;;1.20;;
46835;SDS011;32573;51.290;6.926;2023-04-23T13:41:01;2.83;;;1.05;;
46835;SDS011;32573;51.290;6.926;2023-04-23T13:43:32;2.90;;;1.10;;
46835;SDS011;32573;51.290;6.926;2023-04-23T13:46:01;2.70;;;1.10;;
46835;SDS011;32573;51.290;6.926;2023-04-23T13:48:29;3.70;;;1.02;;
46835;SDS011;32573;51.290;6.926;2023-04-23T13:51:00;2.75;;;1.10;;
46835;SDS011;32573;51.290;6.926;2023-04-23T13:53:43;2.90;;;1.27;;
46835;SDS011;32573;51.290;6.926;2023-04-23T13:56:12;2.33;;;0.90;;
46835;SDS011;32573;51.290;6.926;2023-04-23T13:58:44;2.60;;;1.00;;
46835;SDS011;32573;51.290;6.926;2023-04-23T14:01:46;2.85;;;1.08;;
46835;SDS011;32573;51.290;6.926;2023-04-23T14:04:17;3.30;;;1.10;;
46835;SDS011;32573;51.290;6.926;2023-04-23T14:06:46;2.97;;;1.00;;
46835;SDS011;32573;51.290;6.926;2023-04-23T14:09:18;2.80;;;1.10;;
46835;SDS011;32573;51.290;6.926;2023-04-23T14:11:51;2.15;;;0.98;;
46835;SDS011;32573;51.290;6.926;2023-04-23T14:14:21;2.20;;;1.20;;
46835;SDS011;32573;51.290;6.926;2023-04-23T14:16:50;2.60;;;1.15;;
46835;SDS011;32573;51.290;6.926;2023-04-23T14:19:18;3.47;;;0.90;;
46835;SDS011;32573;51.290;6.926;2023-04-23T14:21:47;2.85;;;0.90;;
46835;SDS011;32573;51.290;6.926;2023-04-23T14:24:16;2.95;;;0.95;;
46835;SDS011;32573;51.290;6.926;2023-04-23T14:26:45;2.67;;;1.00;;
46835;SDS011;32573;51.290;6.926;2023-04-23T14:29:17;2.78;;;0.90;;
46835;SDS011;32573;51.290;6.926;2023-04-23T14:31:51;3.60;;;1.20;;
46835;SDS011;32573;51.290;6.926;2023-04-23T14:34:20;2.83;;;1.10;;
46835;SDS011;32573;51.290;6.926;2023-04-23T14:36:49;2.17;;;1.00;;
46835;SDS011;32573;51.290;6.926;2023-04-23T14:39:20;3.10;;;1.02;;
46835;SDS011;32573;51.290;6.926;2023-04-23T14:41:50;3.13;;;1.08;;
46835;SDS011;32573;51.290;6.926;2023-04-23T14:44:18;1.58;;;0.88;;
46835;SDS011;32573;51.290;6.926;2023-04-23T14:46:49;2.35;;;1.00;;
46835;SDS011;32573;51.290;6.926;2023-04-23T14:49:19;2.40;;;1.10;;
46835;SDS011;32573;51.290;6.926;2023-04-23T14:51:47;2.78;;;0.82;;
46835;SDS011;32573;51.290;6.926;2023-04-23T14:54:20;2.38;;;1.10;;
46835;SDS011;32573;51.290;6.926;2023-04-23T14:56:49;3.25;;;0.93;;
46835;SDS011;32573;51.290;6.926;2023-04-23T14:59:19;3.65;;;1.00;;
46835;SDS011;32573;51.290;6.926;2023-04-23T15:01:48;1.75;;;0.90;;